createdAt,value
2022-11-29T00:00:17.159Z,-0.17
2022-11-29T00:01:17.155Z,0
2022-11-29T00:02:17.216Z,-0.28
2022-11-29T00:03:17.274Z,0
2022-11-29T00:04:17.169Z,0.17
2022-11-29T00:05:17.198Z,0
2022-11-29T00:06:17.179Z,0
2022-11-29T00:07:17.205Z,0
2022-11-29T00:08:17.182Z,0.17
2022-11-29T00:09:17.176Z,0
2022-11-29T00:10:17.173Z,0.17
2022-11-29T00:11:17.196Z,0.17
2022-11-29T00:12:17.193Z,0.28
2022-11-29T00:13:17.189Z,0.44
2022-11-29T00:14:17.185Z,0.28
2022-11-29T00:15:17.186Z,0.28
2022-11-29T00:16:17.277Z,-0.17
2022-11-29T00:17:17.192Z,0.17
2022-11-29T00:18:17.196Z,0.44
2022-11-29T00:19:17.201Z,0.44
2022-11-29T00:20:17.196Z,0.44
2022-11-29T00:21:17.222Z,0.17
2022-11-29T00:22:17.200Z,0.28
2022-11-29T00:23:17.204Z,0.17
2022-11-29T00:24:17.199Z,0.44
2022-11-29T00:25:17.205Z,0.44
2022-11-29T00:26:17.194Z,0.61
2022-11-29T00:27:17.209Z,0.28
2022-11-29T00:28:17.233Z,0.17
2022-11-29T00:29:17.203Z,0.28
2022-11-29T00:30:17.211Z,0.44
2022-11-29T00:31:17.265Z,0.44
2022-11-29T00:32:17.212Z,0.17
2022-11-29T00:33:17.215Z,0
2022-11-29T00:34:17.212Z,0.28
2022-11-29T00:35:17.212Z,0.44
2022-11-29T00:36:17.218Z,0.28
2022-11-29T00:37:17.251Z,0.44
2022-11-29T00:38:17.227Z,0.44
2022-11-29T00:39:17.225Z,0.61
2022-11-29T00:40:17.223Z,0
2022-11-29T00:41:17.230Z,0.28
2022-11-29T00:42:17.235Z,0.44
2022-11-29T00:43:17.244Z,0.44
2022-11-29T00:44:20.296Z,0.44
2022-11-29T00:45:17.237Z,0
2022-11-29T00:46:17.300Z,0.44
2022-11-29T00:47:17.240Z,0.17
2022-11-29T00:48:17.234Z,0.44
2022-11-29T00:49:17.240Z,0.44
2022-11-29T00:50:17.243Z,0.28
2022-11-29T00:51:17.238Z,0.44
2022-11-29T00:52:17.240Z,0.44
2022-11-29T00:53:17.267Z,0.44
2022-11-29T00:54:17.249Z,0.28
2022-11-29T00:55:17.240Z,0.44
2022-11-29T00:56:17.283Z,0.17
2022-11-29T00:57:17.246Z,0.17
2022-11-29T00:58:17.255Z,0.61
2022-11-29T00:59:17.249Z,0.72
2022-11-29T01:00:17.252Z,0.44
2022-11-29T01:01:17.299Z,0.72
2022-11-29T01:02:17.285Z,0.28
2022-11-29T01:03:17.275Z,0.61
2022-11-29T01:04:17.263Z,0.61
2022-11-29T01:05:17.260Z,0.17
2022-11-29T01:06:17.260Z,0.44
2022-11-29T01:07:17.341Z,0.28
2022-11-29T01:08:17.288Z,0.44
2022-11-29T01:09:17.301Z,0.44
2022-11-29T01:10:17.268Z,0.44
2022-11-29T01:11:17.279Z,0.17
2022-11-29T01:12:17.269Z,0.17
2022-11-29T01:13:17.277Z,0.44
2022-11-29T01:14:17.275Z,0.44
2022-11-29T01:15:17.275Z,0.28
2022-11-29T01:16:17.345Z,0.28
2022-11-29T01:17:17.286Z,0
2022-11-29T01:18:17.280Z,0.28
2022-11-29T01:19:17.284Z,0.17
2022-11-29T01:20:17.283Z,0.44
2022-11-29T01:21:17.277Z,0.44
2022-11-29T01:22:17.281Z,0.44
2022-11-29T01:23:17.280Z,0.17
2022-11-29T01:24:17.288Z,0.28
2022-11-29T01:25:17.313Z,0
2022-11-29T01:26:17.289Z,0
2022-11-29T01:27:17.291Z,0.17
2022-11-29T01:28:17.298Z,0.17
2022-11-29T01:29:17.298Z,0.17
2022-11-29T01:30:17.299Z,0.17
2022-11-29T01:31:17.331Z,-0.17
2022-11-29T01:32:17.307Z,0
2022-11-29T01:33:17.296Z,-0.17
2022-11-29T01:34:17.289Z,0
2022-11-29T01:35:17.299Z,-0.17
2022-11-29T01:36:17.310Z,0.28
2022-11-29T01:37:17.307Z,0.17
2022-11-29T01:38:17.307Z,0
2022-11-29T01:39:17.296Z,0.17
2022-11-29T01:40:17.299Z,0
2022-11-29T01:41:17.326Z,0
2022-11-29T01:42:17.308Z,0.17
2022-11-29T01:43:17.305Z,0
2022-11-29T01:44:17.293Z,0.17
2022-11-29T01:45:17.311Z,0.28
2022-11-29T01:46:17.348Z,0.17
2022-11-29T01:47:17.307Z,0.17
2022-11-29T01:48:17.319Z,0.17
2022-11-29T01:49:17.315Z,0.44
2022-11-29T01:50:17.316Z,0.28
2022-11-29T01:51:17.321Z,-0.17
2022-11-29T01:52:17.328Z,0.44
2022-11-29T01:53:17.324Z,0.17
2022-11-29T01:54:17.323Z,-0.17
2022-11-29T01:55:17.322Z,0.28
2022-11-29T01:56:17.411Z,0.17
2022-11-29T01:57:17.365Z,0.28
2022-11-29T01:58:17.330Z,0.28
2022-11-29T01:59:17.326Z,0.17
2022-11-29T02:00:17.327Z,0.44
2022-11-29T02:01:17.348Z,0.28
2022-11-29T02:02:17.402Z,0.17
2022-11-29T02:03:17.333Z,0.28
2022-11-29T02:04:17.333Z,0.44
2022-11-29T02:05:17.342Z,0.44
2022-11-29T02:06:17.330Z,0.44
2022-11-29T02:07:17.403Z,0.44
2022-11-29T02:08:17.345Z,0.17
2022-11-29T02:09:17.341Z,0.28
2022-11-29T02:10:17.350Z,0.17
2022-11-29T02:11:17.344Z,0.17
2022-11-29T02:12:17.351Z,0.44
2022-11-29T02:13:17.360Z,0.44
2022-11-29T02:14:17.351Z,0.44
2022-11-29T02:15:17.381Z,0.44
2022-11-29T02:16:17.396Z,0.28
2022-11-29T02:17:17.344Z,0.44
2022-11-29T02:18:17.354Z,0.44
2022-11-29T02:19:17.351Z,0.44
2022-11-29T02:20:17.354Z,0.17
2022-11-29T02:21:17.354Z,0.44
2022-11-29T02:22:17.357Z,0.17
2022-11-29T02:23:17.367Z,0.44
2022-11-29T02:24:17.351Z,0.44
2022-11-29T02:25:17.364Z,0.44
2022-11-29T02:26:17.360Z,0.44
2022-11-29T02:27:17.362Z,0.28
2022-11-29T02:28:17.365Z,0.44
2022-11-29T02:29:17.391Z,0.28
2022-11-29T02:30:17.372Z,0.28
2022-11-29T02:31:17.413Z,0.44
2022-11-29T02:32:17.371Z,0.44
2022-11-29T02:33:17.370Z,0
2022-11-29T02:34:17.373Z,0.61
2022-11-29T02:35:17.370Z,0.44
2022-11-29T02:36:17.373Z,0.44
2022-11-29T02:37:17.373Z,0.44
2022-11-29T02:38:17.377Z,0.44
2022-11-29T02:39:17.375Z,0.28
2022-11-29T02:40:17.375Z,0.44
2022-11-29T02:41:17.369Z,0.44
2022-11-29T02:42:17.381Z,0.44
2022-11-29T02:43:17.376Z,0.44
2022-11-29T02:44:17.380Z,0.61
2022-11-29T02:45:17.415Z,0.44
2022-11-29T02:46:17.498Z,0.28
2022-11-29T02:47:17.378Z,0.44
2022-11-29T02:48:17.396Z,0.44
2022-11-29T02:49:17.399Z,0.28
2022-11-29T02:50:17.384Z,0.28
2022-11-29T02:51:17.393Z,0.17
2022-11-29T02:52:17.385Z,0.28
2022-11-29T02:53:17.390Z,0.28
2022-11-29T02:54:17.384Z,0
2022-11-29T02:55:17.386Z,0.44
2022-11-29T02:56:17.390Z,-0.17
2022-11-29T02:57:17.394Z,0.28
2022-11-29T02:58:17.391Z,0.28
2022-11-29T02:59:17.388Z,0.44
2022-11-29T03:00:17.399Z,0.17
2022-11-29T03:01:17.462Z,0.28
2022-11-29T03:02:17.449Z,0.28
2022-11-29T03:03:17.405Z,0.28
2022-11-29T03:04:17.392Z,0.28
2022-11-29T03:05:17.415Z,0.44
2022-11-29T03:06:17.385Z,0.28
2022-11-29T03:07:17.449Z,0.44
2022-11-29T03:08:17.392Z,0.61
2022-11-29T03:09:17.404Z,0.44
2022-11-29T03:10:17.401Z,0.44
2022-11-29T03:11:17.407Z,0.44
2022-11-29T03:12:17.399Z,0.44
2022-11-29T03:13:17.404Z,0.72
2022-11-29T03:14:17.415Z,0.28
2022-11-29T03:15:17.401Z,0.44
2022-11-29T03:16:17.403Z,0.44
2022-11-29T03:17:17.423Z,0.61
2022-11-29T03:18:17.413Z,0.44
2022-11-29T03:19:17.404Z,0.72
2022-11-29T03:20:17.414Z,0.44
2022-11-29T03:21:17.404Z,0.28
2022-11-29T03:22:17.402Z,0.61
2022-11-29T03:23:17.426Z,0.61
2022-11-29T03:24:17.408Z,0.44
2022-11-29T03:25:17.405Z,0.17
2022-11-29T03:26:17.422Z,0.61
2022-11-29T03:27:17.409Z,0.61
2022-11-29T03:28:17.430Z,0.44
2022-11-29T03:29:17.431Z,0
2022-11-29T03:30:17.418Z,0.61
2022-11-29T03:31:17.442Z,0.44
2022-11-29T03:32:17.422Z,0.17
2022-11-29T03:33:17.442Z,0.44
2022-11-29T03:34:17.408Z,0.44
2022-11-29T03:35:17.457Z,0.44
2022-11-29T03:36:17.418Z,0.44
2022-11-29T03:37:17.424Z,0.44
2022-11-29T03:38:17.416Z,0.61
2022-11-29T03:39:17.421Z,0.44
2022-11-29T03:40:17.425Z,0.28
2022-11-29T03:41:17.419Z,0.17
2022-11-29T03:42:17.444Z,0.28
2022-11-29T03:43:17.428Z,0.44
2022-11-29T03:44:17.432Z,0.44
2022-11-29T03:45:17.422Z,0.44
2022-11-29T03:46:17.457Z,0.44
2022-11-29T03:47:17.415Z,0.28
2022-11-29T03:48:17.422Z,0.44
2022-11-29T03:49:17.459Z,0.17
2022-11-29T03:50:17.424Z,0
2022-11-29T03:51:17.422Z,0.44
2022-11-29T03:52:17.431Z,0.28
2022-11-29T03:53:17.433Z,0.61
2022-11-29T03:54:17.433Z,0.28
2022-11-29T03:55:17.419Z,0.44
2022-11-29T03:56:17.431Z,0.56
2022-11-29T03:57:17.443Z,0.44
2022-11-29T03:58:17.429Z,0.28
2022-11-29T03:59:17.436Z,0.44
2022-11-29T04:00:17.440Z,0.44
2022-11-29T04:01:17.482Z,0.44
2022-11-29T04:02:17.488Z,0.28
2022-11-29T04:03:17.428Z,-0.17
2022-11-29T04:04:17.437Z,0.28
2022-11-29T04:05:17.460Z,0.44
2022-11-29T04:06:17.433Z,0.28
2022-11-29T04:07:17.486Z,0.28
2022-11-29T04:08:17.423Z,0.28
2022-11-29T04:09:17.451Z,0.44
2022-11-29T04:10:17.445Z,0.28
2022-11-29T04:11:17.445Z,0.44
2022-11-29T04:12:17.441Z,-0.17
2022-11-29T04:13:17.427Z,0.17
2022-11-29T04:14:17.438Z,0.28
2022-11-29T04:15:17.440Z,0.28
2022-11-29T04:16:17.497Z,-0.17
2022-11-29T04:17:17.435Z,0.17
2022-11-29T04:18:17.433Z,0.44
2022-11-29T04:19:17.445Z,0.17
2022-11-29T04:20:17.444Z,0.44
2022-11-29T04:21:17.456Z,0.17
2022-11-29T04:22:17.464Z,0.44
2022-11-29T04:23:17.451Z,0.17
2022-11-29T04:24:17.441Z,0.28
2022-11-29T04:25:17.450Z,0.28
2022-11-29T04:26:17.454Z,0.44
2022-11-29T04:27:17.440Z,0.17
2022-11-29T04:28:17.432Z,0.28
2022-11-29T04:29:17.450Z,0.17
2022-11-29T04:30:17.433Z,0
2022-11-29T04:31:17.516Z,-0.17
2022-11-29T04:32:17.459Z,0.17
2022-11-29T04:33:17.441Z,-0.17
2022-11-29T04:34:17.436Z,0.17
2022-11-29T04:35:17.444Z,0.11
2022-11-29T04:36:17.445Z,0.17
2022-11-29T04:37:17.476Z,-0.17
2022-11-29T04:38:17.441Z,0
2022-11-29T04:39:17.448Z,-0.17
2022-11-29T04:40:17.440Z,0
2022-11-29T04:41:17.452Z,0
2022-11-29T04:42:17.446Z,0.17
2022-11-29T04:43:17.452Z,-0.17
2022-11-29T04:44:17.447Z,0.17
2022-11-29T04:45:17.452Z,0.17
2022-11-29T04:46:17.500Z,0.17
2022-11-29T04:47:17.464Z,-0.17
2022-11-29T04:48:17.450Z,0
2022-11-29T04:49:17.440Z,0
2022-11-29T04:50:17.439Z,0
2022-11-29T04:51:17.460Z,0
2022-11-29T04:52:17.455Z,0
2022-11-29T04:53:17.492Z,0
2022-11-29T04:54:17.466Z,0
2022-11-29T04:55:23.933Z,0
2022-11-29T04:56:17.451Z,0.17
2022-11-29T04:57:17.515Z,0
2022-11-29T04:58:17.454Z,-0.17
2022-11-29T04:59:17.491Z,0
2022-11-29T05:00:17.490Z,-0.17
2022-11-29T05:01:17.531Z,0.17
2022-11-29T05:02:17.549Z,0
2022-11-29T05:03:17.487Z,-0.17
2022-11-29T05:04:17.472Z,0.17
2022-11-29T05:05:17.484Z,0.17
2022-11-29T05:06:17.483Z,0.17
2022-11-29T05:07:17.551Z,-0.17
2022-11-29T05:08:17.484Z,-0.28
2022-11-29T05:09:17.502Z,0
2022-11-29T05:10:17.483Z,0.17
2022-11-29T05:11:19.755Z,0
2022-11-29T05:12:17.482Z,0
2022-11-29T05:13:17.490Z,0
2022-11-29T05:14:17.511Z,-0.17
2022-11-29T05:15:17.485Z,-0.17
2022-11-29T05:16:17.547Z,0
2022-11-29T05:17:17.491Z,-0.17
2022-11-29T05:18:17.500Z,0
2022-11-29T05:19:17.499Z,-0.17
2022-11-29T05:20:17.505Z,-0.17
2022-11-29T05:21:17.499Z,-0.17
2022-11-29T05:22:17.506Z,0
2022-11-29T05:23:17.508Z,-0.17
2022-11-29T05:24:17.526Z,0
2022-11-29T05:25:17.523Z,0
2022-11-29T05:26:17.505Z,0
2022-11-29T05:27:17.514Z,-0.17
2022-11-29T05:28:17.515Z,0
2022-11-29T05:29:17.506Z,-0.28
2022-11-29T05:30:17.525Z,-0.28
2022-11-29T05:31:17.612Z,0
2022-11-29T05:32:17.516Z,0
2022-11-29T05:33:17.513Z,0.17
2022-11-29T05:34:17.518Z,0
2022-11-29T05:35:17.534Z,-0.17
2022-11-29T05:36:17.526Z,0.11
2022-11-29T05:37:17.530Z,0
2022-11-29T05:38:17.527Z,-0.17
2022-11-29T05:39:17.521Z,0
2022-11-29T05:40:17.528Z,-0.28
2022-11-29T05:41:17.551Z,-0.17
2022-11-29T05:42:17.522Z,-0.28
2022-11-29T05:43:17.537Z,-0.28
2022-11-29T05:44:17.527Z,-0.17
2022-11-29T05:45:17.531Z,-0.28
2022-11-29T05:46:17.567Z,0
2022-11-29T05:47:17.541Z,0
2022-11-29T05:48:17.535Z,0
2022-11-29T05:49:17.541Z,-0.28
2022-11-29T05:50:17.539Z,0
2022-11-29T05:51:17.539Z,0
2022-11-29T05:52:17.542Z,-0.22
2022-11-29T05:53:17.557Z,-0.17
2022-11-29T05:54:17.546Z,0
2022-11-29T05:55:17.548Z,-0.28
2022-11-29T05:56:17.549Z,-0.28
2022-11-29T05:57:17.577Z,-0.28
2022-11-29T05:58:17.536Z,0
2022-11-29T05:59:17.548Z,-0.17
2022-11-29T06:00:17.539Z,-0.17
2022-11-29T06:01:17.555Z,-0.17
2022-11-29T06:02:17.642Z,-0.17
2022-11-29T06:03:17.591Z,0
2022-11-29T06:04:17.534Z,-0.28
2022-11-29T06:05:17.558Z,-0.28
2022-11-29T06:06:17.564Z,0
2022-11-29T06:07:17.601Z,-0.39
2022-11-29T06:08:17.552Z,-0.17
2022-11-29T06:09:17.559Z,-0.28
2022-11-29T06:10:17.554Z,-0.17
2022-11-29T06:11:17.561Z,-0.17
2022-11-29T06:12:20.969Z,-0.17
2022-11-29T06:13:17.592Z,-0.17
2022-11-29T06:14:17.562Z,0
2022-11-29T06:15:17.572Z,0
2022-11-29T06:16:17.589Z,0
2022-11-29T06:17:17.585Z,0
2022-11-29T06:18:17.561Z,-0.17
2022-11-29T06:19:17.578Z,0
2022-11-29T06:20:17.572Z,-0.17
2022-11-29T06:21:17.579Z,-0.17
2022-11-29T06:22:17.578Z,0
2022-11-29T06:23:17.569Z,0
2022-11-29T06:24:20.522Z,0
2022-11-29T06:25:17.579Z,-0.39
2022-11-29T06:26:17.571Z,0
2022-11-29T06:27:17.587Z,-0.17
2022-11-29T06:28:17.589Z,0.17
2022-11-29T06:29:17.608Z,0
2022-11-29T06:30:17.586Z,-0.17
2022-11-29T06:31:17.667Z,-0.28
2022-11-29T06:32:17.596Z,-0.17
2022-11-29T06:33:17.590Z,-0.28
2022-11-29T06:34:17.592Z,-0.28
2022-11-29T06:35:17.600Z,-0.28
2022-11-29T06:36:17.601Z,0
2022-11-29T06:37:17.601Z,0
2022-11-29T06:38:17.600Z,0
2022-11-29T06:39:17.608Z,0
2022-11-29T06:40:17.602Z,0
2022-11-29T06:41:17.609Z,-0.17
2022-11-29T06:42:17.599Z,0
2022-11-29T06:43:17.602Z,0
2022-11-29T06:44:17.626Z,-0.17
2022-11-29T06:45:17.626Z,-0.17
2022-11-29T06:46:17.654Z,-0.39
2022-11-29T06:47:17.618Z,-0.17
2022-11-29T06:48:17.615Z,-0.17
2022-11-29T06:49:17.624Z,-0.17
2022-11-29T06:50:17.616Z,0
2022-11-29T06:51:17.623Z,0
2022-11-29T06:52:17.621Z,0
2022-11-29T06:53:17.628Z,0
2022-11-29T06:54:17.630Z,-0.17
2022-11-29T06:55:17.627Z,0
2022-11-29T06:56:17.634Z,0
2022-11-29T06:57:17.627Z,0.17
2022-11-29T06:58:17.651Z,0
2022-11-29T06:59:17.629Z,-0.28
2022-11-29T07:00:17.636Z,0.17
2022-11-29T07:01:17.741Z,0
2022-11-29T07:02:17.686Z,-0.17
2022-11-29T07:03:17.629Z,-0.17
2022-11-29T07:04:17.637Z,-0.39
2022-11-29T07:05:17.646Z,-0.39
2022-11-29T07:06:17.634Z,0
2022-11-29T07:07:17.687Z,-0.17
2022-11-29T07:08:17.644Z,0
2022-11-29T07:09:17.640Z,0
2022-11-29T07:10:17.646Z,-0.17
2022-11-29T07:11:17.649Z,-0.17
2022-11-29T07:12:17.637Z,-0.17
2022-11-29T07:13:17.649Z,-0.17
2022-11-29T07:14:17.652Z,-0.28
2022-11-29T07:15:17.657Z,-0.17
2022-11-29T07:16:17.701Z,-0.22
2022-11-29T07:17:17.679Z,-0.28
2022-11-29T07:18:17.652Z,-0.28
2022-11-29T07:19:17.652Z,-0.17
2022-11-29T07:20:17.653Z,-0.17
2022-11-29T07:21:17.655Z,0
2022-11-29T07:22:17.665Z,0
2022-11-29T07:23:17.661Z,-0.17
2022-11-29T07:24:17.672Z,0.17
2022-11-29T07:25:17.662Z,0.17
2022-11-29T07:26:17.662Z,0.17
2022-11-29T07:27:17.659Z,0
2022-11-29T07:28:17.654Z,0.17
2022-11-29T07:29:17.665Z,0
2022-11-29T07:30:17.679Z,0.17
2022-11-29T07:31:17.733Z,0.17
2022-11-29T07:32:17.672Z,0
2022-11-29T07:33:17.695Z,-0.17
2022-11-29T07:34:17.665Z,0
2022-11-29T07:35:17.673Z,0
2022-11-29T07:36:17.671Z,0.17
2022-11-29T07:37:17.675Z,0
2022-11-29T07:38:17.677Z,-0.28
2022-11-29T07:39:17.679Z,0.17
2022-11-29T07:40:17.675Z,-0.17
2022-11-29T07:41:17.661Z,0
2022-11-29T07:42:17.679Z,0
2022-11-29T07:43:17.682Z,0
2022-11-29T07:44:17.679Z,0
2022-11-29T07:45:17.681Z,-0.17
2022-11-29T07:46:17.753Z,-0.28
2022-11-29T07:47:17.686Z,0.17
2022-11-29T07:48:17.685Z,0
2022-11-29T07:49:17.704Z,0
2022-11-29T07:50:17.687Z,-0.17
2022-11-29T07:51:17.689Z,0
2022-11-29T07:52:17.686Z,0
2022-11-29T07:53:17.675Z,0
2022-11-29T07:54:17.684Z,0
2022-11-29T07:55:19.063Z,0
2022-11-29T07:56:17.689Z,0
2022-11-29T07:57:17.687Z,0
2022-11-29T07:58:17.734Z,0
2022-11-29T07:59:17.686Z,0.17
2022-11-29T08:00:17.688Z,0
2022-11-29T08:01:17.715Z,-0.17
2022-11-29T08:02:17.748Z,-0.17
2022-11-29T08:03:17.695Z,0
2022-11-29T08:04:17.682Z,0.17
2022-11-29T08:05:17.719Z,0.28
2022-11-29T08:06:17.686Z,0.28
2022-11-29T08:07:17.732Z,-0.17
2022-11-29T08:08:17.703Z,0.17
2022-11-29T08:09:17.698Z,0.17
2022-11-29T08:10:17.707Z,0.28
2022-11-29T08:11:17.713Z,0.28
2022-11-29T08:12:17.706Z,0.44
2022-11-29T08:13:17.701Z,0.28
2022-11-29T08:14:17.699Z,0
2022-11-29T08:15:17.713Z,0.44
2022-11-29T08:16:17.763Z,0.28
2022-11-29T08:17:17.700Z,0.17
2022-11-29T08:18:17.708Z,0.44
2022-11-29T08:19:17.718Z,0
2022-11-29T08:20:17.712Z,0
2022-11-29T08:21:17.732Z,0.17
2022-11-29T08:22:17.710Z,0
2022-11-29T08:23:17.713Z,0.17
2022-11-29T08:24:17.710Z,0.28
2022-11-29T08:25:17.712Z,0.44
2022-11-29T08:26:17.716Z,0.28
2022-11-29T08:27:17.718Z,0.28
2022-11-29T08:28:17.720Z,0
2022-11-29T08:29:17.721Z,0.44
2022-11-29T08:30:17.715Z,0.44
2022-11-29T08:31:17.746Z,0.28
2022-11-29T08:32:17.717Z,0.17
2022-11-29T08:33:17.721Z,0.44
2022-11-29T08:34:17.722Z,0.44
2022-11-29T08:35:17.720Z,0.44
2022-11-29T08:36:17.716Z,0.44
2022-11-29T08:37:17.743Z,0.28
2022-11-29T08:38:17.726Z,0.44
2022-11-29T08:39:17.732Z,0.44
2022-11-29T08:40:17.725Z,0.44
2022-11-29T08:41:17.723Z,0
2022-11-29T08:42:17.730Z,0.28
2022-11-29T08:43:17.725Z,0.28
2022-11-29T08:44:17.722Z,0.44
2022-11-29T08:45:17.733Z,0.89
2022-11-29T08:46:18.842Z,0.72
2022-11-29T08:47:17.733Z,0.44
2022-11-29T08:48:17.733Z,0.44
2022-11-29T08:49:17.733Z,0.72
2022-11-29T08:50:17.741Z,0.72
2022-11-29T08:51:17.735Z,0.89
2022-11-29T08:52:17.736Z,0.89
2022-11-29T08:53:17.765Z,0.72
2022-11-29T08:54:17.732Z,0.89
2022-11-29T08:55:17.746Z,0.72
2022-11-29T08:56:59.947Z,0.72
2022-11-29T08:57:38.946Z,0.89
2022-11-29T08:58:17.735Z,0.72
2022-11-29T08:59:17.734Z,1.06
2022-11-29T09:00:17.746Z,0.89
2022-11-29T09:01:17.794Z,1.06
2022-11-29T09:02:17.768Z,1.17
2022-11-29T09:03:17.740Z,0.72
2022-11-29T09:04:17.741Z,1.06
2022-11-29T09:05:17.737Z,1.33
2022-11-29T09:06:17.732Z,1.17
2022-11-29T09:07:17.849Z,1.72
2022-11-29T09:08:17.738Z,1.72
2022-11-29T09:09:17.771Z,1.33
2022-11-29T09:10:17.741Z,1.5
2022-11-29T09:11:17.739Z,1.5
2022-11-29T09:12:17.741Z,1.33
2022-11-29T09:13:17.736Z,1.5
2022-11-29T09:14:17.734Z,1.72
2022-11-29T09:15:17.732Z,1.06
2022-11-29T09:16:17.743Z,1.33
2022-11-29T09:17:17.738Z,0.89
2022-11-29T09:18:17.749Z,0.89
2022-11-29T09:19:17.742Z,1.61
2022-11-29T09:20:17.737Z,1.61
2022-11-29T09:21:17.734Z,1.61
2022-11-29T09:22:17.738Z,1.5
2022-11-29T09:23:17.745Z,1.5
2022-11-29T09:24:17.743Z,1.5
2022-11-29T09:25:17.778Z,1.5
2022-11-29T09:26:17.740Z,1.72
2022-11-29T09:27:17.756Z,1.72
2022-11-29T09:28:17.752Z,1.61
2022-11-29T09:29:17.759Z,1.61
2022-11-29T09:30:22.191Z,1.72
2022-11-29T09:31:17.828Z,1.61
2022-11-29T09:32:17.766Z,1.72
2022-11-29T09:33:17.763Z,1.72
2022-11-29T09:34:17.767Z,2
2022-11-29T09:35:17.757Z,1.72
2022-11-29T09:36:17.767Z,1.72
2022-11-29T09:37:17.765Z,1.72
2022-11-29T09:38:17.764Z,1.61
2022-11-29T09:39:17.762Z,1.5
2022-11-29T09:40:17.767Z,1.5
2022-11-29T09:41:17.791Z,1.33
2022-11-29T09:42:17.778Z,1.5
2022-11-29T09:43:17.776Z,1.61
2022-11-29T09:44:17.780Z,1.17
2022-11-29T09:45:17.785Z,1.61
2022-11-29T09:46:17.827Z,1.72
2022-11-29T09:47:17.783Z,2
2022-11-29T09:48:17.776Z,1.72
2022-11-29T09:49:17.779Z,1.72
2022-11-29T09:50:17.785Z,1.72
2022-11-29T09:51:17.779Z,1.72
2022-11-29T09:52:17.779Z,1.89
2022-11-29T09:53:17.791Z,2
2022-11-29T09:54:17.786Z,1.72
2022-11-29T09:55:17.787Z,1.89
2022-11-29T09:56:17.788Z,1.89
2022-11-29T09:57:17.814Z,1.72
2022-11-29T09:58:17.786Z,2
2022-11-29T09:59:17.795Z,2.17
2022-11-29T10:00:17.789Z,2
2022-11-29T10:01:17.823Z,1.89
2022-11-29T10:02:21.260Z,1.72
2022-11-29T10:03:17.796Z,2
2022-11-29T10:04:17.792Z,1.89
2022-11-29T10:05:17.803Z,2
2022-11-29T10:06:17.799Z,2.44
2022-11-29T10:07:17.838Z,2.44
2022-11-29T10:08:17.794Z,2.17
2022-11-29T10:09:17.796Z,2.61
2022-11-29T10:10:17.857Z,2.28
2022-11-29T10:11:17.795Z,2
2022-11-29T10:12:17.797Z,2.44
2022-11-29T10:13:17.836Z,2.61
2022-11-29T10:14:17.811Z,2.44
2022-11-29T10:15:17.804Z,2.61
2022-11-29T10:16:17.848Z,2.61
2022-11-29T10:17:17.810Z,2.61
2022-11-29T10:18:17.815Z,2.61
2022-11-29T10:19:17.806Z,2.61
2022-11-29T10:20:17.897Z,2
2022-11-29T10:21:17.831Z,2.61
2022-11-29T10:22:17.804Z,2.28
2022-11-29T10:23:17.803Z,2.89
2022-11-29T10:24:17.831Z,3
2022-11-29T10:25:17.818Z,3
2022-11-29T10:26:17.813Z,2.89
2022-11-29T10:27:17.811Z,2.28
2022-11-29T10:28:17.814Z,3
2022-11-29T10:29:17.838Z,2.89
2022-11-29T10:30:17.925Z,3
2022-11-29T10:31:17.859Z,2.28
2022-11-29T10:32:17.818Z,2.44
2022-11-29T10:33:17.825Z,2.61
2022-11-29T10:34:17.818Z,2.44
2022-11-29T10:35:17.824Z,2.72
2022-11-29T10:36:17.830Z,2.72
2022-11-29T10:37:17.822Z,2.44
2022-11-29T10:38:33.225Z,2.28
2022-11-29T10:39:17.830Z,2.89
2022-11-29T10:40:17.832Z,2.89
2022-11-29T10:41:17.835Z,2.72
2022-11-29T10:42:17.837Z,2.72
2022-11-29T10:43:17.839Z,3
2022-11-29T10:44:17.832Z,3.17
2022-11-29T10:45:17.858Z,3.17
2022-11-29T10:46:17.937Z,2.72
2022-11-29T10:47:17.842Z,3
2022-11-29T10:48:17.841Z,2.89
2022-11-29T10:49:17.844Z,3
2022-11-29T10:50:17.840Z,2.72
2022-11-29T10:51:17.843Z,3
2022-11-29T10:52:17.843Z,2.89
2022-11-29T10:53:17.846Z,3
2022-11-29T10:54:17.852Z,2.72
2022-11-29T10:55:17.859Z,3.17
2022-11-29T10:56:17.861Z,3.17
2022-11-29T10:57:17.849Z,3
2022-11-29T10:58:18.250Z,2.89
2022-11-29T10:59:17.845Z,2.72
2022-11-29T11:00:17.848Z,2.72
2022-11-29T11:01:17.946Z,2.89
2022-11-29T11:02:17.862Z,2.72
2022-11-29T11:03:17.852Z,3
2022-11-29T11:04:17.867Z,2.72
2022-11-29T11:05:17.893Z,3
2022-11-29T11:06:17.859Z,3
2022-11-29T11:07:17.882Z,3.11
2022-11-29T11:08:17.871Z,3
2022-11-29T11:09:17.872Z,3.17
2022-11-29T11:10:17.864Z,3.17
2022-11-29T11:11:17.871Z,3.44
2022-11-29T11:12:17.873Z,3.33
2022-11-29T11:13:17.862Z,3.33
2022-11-29T11:14:17.862Z,3.33
2022-11-29T11:15:17.869Z,3.44
2022-11-29T11:16:17.929Z,3.33
2022-11-29T11:17:17.895Z,3.61
2022-11-29T11:18:17.873Z,3.56
2022-11-29T11:19:17.873Z,3.56
2022-11-29T11:20:17.875Z,3.61
2022-11-29T11:21:17.880Z,3.5
2022-11-29T11:22:17.884Z,3.83
2022-11-29T11:23:17.882Z,3.44
2022-11-29T11:24:17.886Z,3.56
2022-11-29T11:25:17.888Z,3.44
2022-11-29T11:26:17.903Z,3.44
2022-11-29T11:27:17.876Z,3.39
2022-11-29T11:28:17.884Z,3.28
2022-11-29T11:29:17.883Z,3.28
2022-11-29T11:30:17.885Z,3.39
2022-11-29T11:31:17.958Z,3.39
2022-11-29T11:32:17.897Z,3.28
2022-11-29T11:33:17.918Z,3.28
2022-11-29T11:34:17.889Z,3.56
2022-11-29T11:35:18.576Z,3.11
2022-11-29T11:36:17.897Z,3.39
2022-11-29T11:37:17.898Z,3.39
2022-11-29T11:38:17.901Z,3.39
2022-11-29T11:39:17.894Z,3.67
2022-11-29T11:40:18.010Z,3.56
2022-11-29T11:41:17.919Z,3.56
2022-11-29T11:42:17.905Z,3.67
2022-11-29T11:43:17.902Z,3.39
2022-11-29T11:44:40.025Z,3.39
2022-11-29T11:45:17.897Z,3.39
2022-11-29T11:46:18.315Z,3.67
2022-11-29T11:47:17.906Z,3.11
2022-11-29T11:48:17.907Z,3.56
2022-11-29T11:49:17.924Z,3.67
2022-11-29T11:50:17.902Z,3.67
2022-11-29T11:51:17.912Z,3.56
2022-11-29T11:52:17.915Z,3.39
2022-11-29T11:53:17.913Z,3.28
2022-11-29T11:54:17.915Z,3.28
2022-11-29T11:55:17.908Z,3.28
2022-11-29T11:56:17.920Z,3.11
2022-11-29T11:57:17.911Z,3
2022-11-29T11:58:17.923Z,3
2022-11-29T11:59:17.919Z,3.28
2022-11-29T12:00:29.495Z,3.39
2022-11-29T12:01:17.915Z,3.28
2022-11-29T12:02:17.957Z,3
2022-11-29T12:03:18.047Z,3.67
2022-11-29T12:04:17.922Z,3.56
2022-11-29T12:05:17.942Z,3.28
2022-11-29T12:06:17.923Z,3.39
2022-11-29T12:07:17.946Z,3.28
2022-11-29T12:08:17.952Z,3.67
2022-11-29T12:09:17.919Z,3.56
2022-11-29T12:10:17.914Z,3.39
2022-11-29T12:11:17.925Z,3.39
2022-11-29T12:12:17.930Z,3.39
2022-11-29T12:13:17.938Z,3.28
2022-11-29T12:14:17.992Z,3
2022-11-29T12:15:17.935Z,3.28
2022-11-29T12:16:17.954Z,3.11
2022-11-29T12:17:20.086Z,3.28
2022-11-29T12:18:17.934Z,3.28
2022-11-29T12:19:17.931Z,3.39
2022-11-29T12:20:17.936Z,3.56
2022-11-29T12:21:17.965Z,3.56
2022-11-29T12:22:17.945Z,3.56
2022-11-29T12:23:17.941Z,3.56
2022-11-29T12:24:17.955Z,3.56
2022-11-29T12:25:17.939Z,3.67
2022-11-29T12:26:34.761Z,3.28
2022-11-29T12:27:17.982Z,3.56
2022-11-29T12:28:20.511Z,3.67
2022-11-29T12:29:17.951Z,3.56
2022-11-29T12:30:17.945Z,3.56
2022-11-29T12:31:17.989Z,3.28
2022-11-29T12:32:17.954Z,3.39
2022-11-29T12:33:17.954Z,3.11
2022-11-29T12:34:22.143Z,3.28
2022-11-29T12:35:19.072Z,3
2022-11-29T12:36:17.954Z,3.11
2022-11-29T12:37:17.982Z,3.56
2022-11-29T12:38:17.964Z,3.56
2022-11-29T12:39:17.946Z,3.67
2022-11-29T12:40:17.949Z,3.94
2022-11-29T12:41:17.953Z,3.78
2022-11-29T12:42:17.956Z,4.11
2022-11-29T12:43:17.966Z,3.94
2022-11-29T12:44:17.965Z,4.11
2022-11-29T12:45:17.973Z,4.22
2022-11-29T12:46:18.003Z,3.94
2022-11-29T12:48:17.970Z,4.11
2022-11-29T12:49:17.969Z,3.78
2022-11-29T12:50:17.962Z,4.11
2022-11-29T12:51:17.967Z,4.11
2022-11-29T12:52:17.971Z,3.94
2022-11-29T12:53:21.318Z,4.5
2022-11-29T12:54:17.970Z,4.5
2022-11-29T12:55:17.961Z,4.83
2022-11-29T12:56:17.974Z,4.5
2022-11-29T12:57:17.978Z,4.5
2022-11-29T12:58:17.968Z,4.5
2022-11-29T12:59:17.982Z,4.67
2022-11-29T13:00:17.978Z,4.67
2022-11-29T13:01:18.002Z,4.39
2022-11-29T13:02:17.973Z,4.94
2022-11-29T13:03:17.976Z,4.67
2022-11-29T13:04:17.982Z,4.67
2022-11-29T13:05:17.986Z,3.78
2022-11-29T13:06:17.995Z,3.94
2022-11-29T13:07:17.997Z,3.56
2022-11-29T13:08:17.979Z,3.56
2022-11-29T13:09:18.009Z,3.28
2022-11-29T13:10:18.614Z,3.56
2022-11-29T13:11:17.995Z,3.56
2022-11-29T13:12:17.980Z,4.11
2022-11-29T13:13:17.988Z,3.67
2022-11-29T13:14:41.943Z,3.56
2022-11-29T13:15:17.992Z,3.67
2022-11-29T13:16:22.137Z,3.67
2022-11-29T13:17:17.986Z,3.67
2022-11-29T13:18:17.994Z,3.78
2022-11-29T13:19:17.989Z,4.11
2022-11-29T13:20:18.000Z,4.11
2022-11-29T13:21:18.001Z,4.22
2022-11-29T13:22:17.995Z,4.22
2022-11-29T13:23:17.982Z,4.5
2022-11-29T13:24:17.990Z,4.39
2022-11-29T13:25:18.023Z,4.5
2022-11-29T13:26:17.997Z,4.83
2022-11-29T13:27:17.993Z,4.5
2022-11-29T13:28:18.003Z,4.67
2022-11-29T13:29:18.006Z,4.94
2022-11-29T13:30:17.996Z,4.94
2022-11-29T13:31:18.036Z,4.94